Accueil
METAR-TAF:

METAR-TAF

Aéroports :

Farnborough, Angleterre

latitude: 51-17N, longitude: 000-46W, altitude: 65 m

Observation

Le bulletin a été fait il y a 10 minutes, à 20:50 UTC
Vent 15 kt de sud-ouest
Température 12°C
Humidité 88%
Pression 1009 hPa
Visibilité 10 km ou plus
Nuages fragmentés à une hauteur de 900 ft
pluie

METAR: EGLF 242050Z 22015KT 9999 RA BKN009 12/10 Q1009

Heure: 22:00 (21:00 UTC)

Prévision

Le bulletin a été fait il y a 3 heures et 54 minutes, à 17:06 UTC
Prévision valable du 24 à 18 UTC au 24 à 21 UTC
Vent 12 kt de ouest/sud-ouest
Visibilité 10 km ou plus
Nuages fragmentés à une hauteur de 1000 ft
Temporairement
du 24 à 18 UTC au 24 à 21 UTC
Vent 16 kt de sud-ouest avec des rafales jusqu'à 26 kt
Visibilité: 4000 m
Nuages fragmentés à une hauteur de 500 ft
pluie, bruine

TAF: EGLF 241706Z 2418/2421 24012KT 9999 BKN010 TEMPO 2418/2421 22016G26KT 4000 RADZ BKN005

Observations et prévisions météorologiques de plus de 4000 aéroports (messages METAR et TAF).

Les stations disponibles sont représentées par des disques jaunes et rouges sur la carte.

Passer la souris dessus pour voir le nom de la station.

Cliquer dessus pour voir les observations et prévisions météorologiques.

Pour changer de carte: cliquez sur les boutons verts avec une croix noire pour zoomer, sur le bouton vert avec un tiret pour effectuer un zoom arrière, ou sur les flèches vertes pour les cartes adjacentes.


METAR-TAF: